sensor_id;sensor_type;location;lat;lon;timestamp;pressure;altitude;pressure_sealevel;temperature;humidity
44697;BME280;57264;47.480;19.354;2023-05-21T00:01:02;99331.41;;;15.90;71.63
44697;BME280;57264;47.480;19.354;2023-05-21T00:03:30;99314.81;;;15.95;70.98
44697;BME280;57264;47.480;19.354;2023-05-21T00:05:56;99319.47;;;15.87;71.64
44697;BME280;57264;47.480;19.354;2023-05-21T00:08:22;99329.16;;;15.82;71.46
44697;BME280;57264;47.480;19.354;2023-05-21T00:10:48;99336.44;;;15.75;72.53
44697;BME280;57264;47.480;19.354;2023-05-21T00:13:13;99329.31;;;15.75;72.13
44697;BME280;57264;47.480;19.354;2023-05-21T00:15:39;99329.41;;;15.69;72.33
44697;BME280;57264;47.480;19.354;2023-05-21T00:18:04;99323.25;;;15.63;73.01
44697;BME280;57264;47.480;19.354;2023-05-21T00:20:30;99322.44;;;15.63;72.82
44697;BME280;57264;47.480;19.354;2023-05-21T00:22:59;99319.31;;;15.66;72.56
44697;BME280;57264;47.480;19.354;2023-05-21T00:25:29;99320.72;;;15.68;72.04
44697;BME280;57264;47.480;19.354;2023-05-21T00:27:54;99319.69;;;15.58;72.60
44697;BME280;57264;47.480;19.354;2023-05-21T00:30:20;99318.66;;;15.59;72.38
44697;BME280;57264;47.480;19.354;2023-05-21T00:32:46;99316.59;;;15.49;72.87
44697;BME280;57264;47.480;19.354;2023-05-21T00:35:11;99314.19;;;15.48;72.88
44697;BME280;57264;47.480;19.354;2023-05-21T00:37:37;99319.38;;;15.42;73.01
44697;BME280;57264;47.480;19.354;2023-05-21T00:40:04;99320.88;;;15.38;73.09
44697;BME280;57264;47.480;19.354;2023-05-21T00:42:31;99316.75;;;15.31;74.11
44697;BME280;57264;47.480;19.354;2023-05-21T00:44:58;99320.94;;;15.15;75.01
44697;BME280;57264;47.480;19.354;2023-05-21T00:47:24;99322.31;;;15.18;74.80
44697;BME280;57264;47.480;19.354;2023-05-21T00:49:51;99311.06;;;15.11;74.81
44697;BME280;57264;47.480;19.354;2023-05-21T00:52:17;99315.19;;;15.07;74.94
44697;BME280;57264;47.480;19.354;2023-05-21T00:54:54;99308.91;;;14.96;75.54
44697;BME280;57264;47.480;19.354;2023-05-21T00:57:22;99314.63;;;14.93;75.84
44697;BME280;57264;47.480;19.354;2023-05-21T00:59:51;99320.84;;;14.87;76.36
44697;BME280;57264;47.480;19.354;2023-05-21T01:02:17;99317.88;;;14.83;76.06
44697;BME280;57264;47.480;19.354;2023-05-21T01:04:44;99322.00;;;14.79;76.58
44697;BME280;57264;47.480;19.354;2023-05-21T01:07:10;99317.97;;;14.77;76.36
44697;BME280;57264;47.480;19.354;2023-05-21T01:09:35;99320.06;;;14.75;76.23
44697;BME280;57264;47.480;19.354;2023-05-21T01:12:01;99319.13;;;14.81;76.27
44697;BME280;57264;47.480;19.354;2023-05-21T01:14:28;99318.44;;;14.74;76.33
44697;BME280;57264;47.480;19.354;2023-05-21T01:16:56;99318.91;;;14.71;76.32
44697;BME280;57264;47.480;19.354;2023-05-21T01:19:23;99320.88;;;14.64;76.68
44697;BME280;57264;47.480;19.354;2023-05-21T01:21:56;99319.59;;;14.66;76.62
44697;BME280;57264;47.480;19.354;2023-05-21T01:24:24;99316.59;;;14.63;76.95
44697;BME280;57264;47.480;19.354;2023-05-21T01:26:50;99319.81;;;14.65;76.95
44697;BME280;57264;47.480;19.354;2023-05-21T01:29:16;99317.41;;;14.63;76.96
44697;BME280;57264;47.480;19.354;2023-05-21T01:34:40;99310.19;;;14.59;77.03
44697;BME280;57264;47.480;19.354;2023-05-21T01:37:44;99315.47;;;14.59;77.41
44697;BME280;57264;47.480;19.354;2023-05-21T01:40:30;99304.41;;;14.50;77.36
44697;BME280;57264;47.480;19.354;2023-05-21T01:42:58;99307.53;;;14.47;77.87
44697;BME280;57264;47.480;19.354;2023-05-21T01:45:24;99318.78;;;14.54;77.03
44697;BME280;57264;47.480;19.354;2023-05-21T01:47:53;99310.28;;;14.52;77.05
44697;BME280;57264;47.480;19.354;2023-05-21T01:50:22;99306.25;;;14.49;77.48
44697;BME280;57264;47.480;19.354;2023-05-21T01:52:53;99299.00;;;14.57;76.59
44697;BME280;57264;47.480;19.354;2023-05-21T02:08:17;99312.19;;;14.33;77.65
44697;BME280;57264;47.480;19.354;2023-05-21T02:10:44;99309.78;;;14.32;77.32
44697;BME280;57264;47.480;19.354;2023-05-21T02:13:10;99301.28;;;14.30;77.20
44697;BME280;57264;47.480;19.354;2023-05-21T02:15:35;99304.13;;;14.28;77.29
44697;BME280;57264;47.480;19.354;2023-05-21T02:18:01;99300.13;;;14.26;77.36
44697;BME280;57264;47.480;19.354;2023-05-21T02:20:27;99308.72;;;14.21;77.56
44697;BME280;57264;47.480;19.354;2023-05-21T02:22:53;99305.25;;;14.21;77.75
44697;BME280;57264;47.480;19.354;2023-05-21T02:25:18;99312.41;;;14.20;77.60
44697;BME280;57264;47.480;19.354;2023-05-21T02:27:44;99302.41;;;14.22;77.15
44697;BME280;57264;47.480;19.354;2023-05-21T02:30:12;99308.63;;;14.16;77.06
44697;BME280;57264;47.480;19.354;2023-05-21T02:32:38;99305.06;;;14.22;76.94
44697;BME280;57264;47.480;19.354;2023-05-21T02:35:08;99312.28;;;14.15;77.11
44697;BME280;57264;47.480;19.354;2023-05-21T02:37:34;99315.59;;;14.11;76.78
44697;BME280;57264;47.480;19.354;2023-05-21T02:40:04;99312.63;;;14.30;76.10
44697;BME280;57264;47.480;19.354;2023-05-21T02:42:35;99311.00;;;14.18;76.53
44697;BME280;57264;47.480;19.354;2023-05-21T02:45:10;99307.13;;;14.20;76.32
44697;BME280;57264;47.480;19.354;2023-05-21T02:47:36;99301.13;;;14.25;75.85
44697;BME280;57264;47.480;19.354;2023-05-21T02:50:05;99303.78;;;14.25;75.80
44697;BME280;57264;47.480;19.354;2023-05-21T02:52:31;99304.00;;;14.12;76.58
44697;BME280;57264;47.480;19.354;2023-05-21T02:54:56;99300.69;;;14.16;76.90
44697;BME280;57264;47.480;19.354;2023-05-21T02:57:22;99301.25;;;14.18;76.35
44697;BME280;57264;47.480;19.354;2023-05-21T02:59:47;99300.31;;;14.13;76.58
44697;BME280;57264;47.480;19.354;2023-05-21T03:02:13;99300.31;;;14.13;76.27
44697;BME280;57264;47.480;19.354;2023-05-21T03:04:38;99297.59;;;14.19;75.85
44697;BME280;57264;47.480;19.354;2023-05-21T03:07:14;99301.13;;;14.25;75.74
44697;BME280;57264;47.480;19.354;2023-05-21T03:09:42;99295.66;;;14.26;75.23
44697;BME280;57264;47.480;19.354;2023-05-21T03:12:08;99289.91;;;14.29;74.79
44697;BME280;57264;47.480;19.354;2023-05-21T03:14:34;99293.50;;;14.35;74.66
44697;BME280;57264;47.480;19.354;2023-05-21T03:17:00;99289.38;;;14.50;73.71
44697;BME280;57264;47.480;19.354;2023-05-21T03:19:27;99286.75;;;14.50;73.73
44697;BME280;57264;47.480;19.354;2023-05-21T03:21:54;99286.59;;;14.69;72.76
44697;BME280;57264;47.480;19.354;2023-05-21T03:24:20;99285.22;;;14.78;72.38
44697;BME280;57264;47.480;19.354;2023-05-21T03:26:46;99285.13;;;14.84;72.19
44697;BME280;57264;47.480;19.354;2023-05-21T03:29:12;99291.66;;;14.93;71.63
44697;BME280;57264;47.480;19.354;2023-05-21T03:31:38;99289.47;;;15.02;71.66
44697;BME280;57264;47.480;19.354;2023-05-21T03:34:03;99296.34;;;15.15;71.05
44697;BME280;57264;47.480;19.354;2023-05-21T03:36:29;99293.09;;;15.24;70.71
44697;BME280;57264;47.480;19.354;2023-05-21T03:38:55;99295.94;;;15.34;70.58
44697;BME280;57264;47.480;19.354;2023-05-21T03:41:20;99295.09;;;15.45;70.11
44697;BME280;57264;47.480;19.354;2023-05-21T03:43:46;99300.03;;;15.54;69.48
44697;BME280;57264;47.480;19.354;2023-05-21T03:46:11;99301.28;;;15.63;69.70
44697;BME280;57264;47.480;19.354;2023-05-21T03:48:37;99302.84;;;15.75;68.92
44697;BME280;57264;47.480;19.354;2023-05-21T03:51:03;99304.84;;;15.85;68.38
44697;BME280;57264;47.480;19.354;2023-05-21T03:53:28;99303.41;;;15.94;68.09
44697;BME280;57264;47.480;19.354;2023-05-21T03:55:54;99311.78;;;16.03;67.29
44697;BME280;57264;47.480;19.354;2023-05-21T03:58:23;99306.69;;;16.13;66.95
44697;BME280;57264;47.480;19.354;2023-05-21T04:00:49;99306.19;;;16.16;66.68
44697;BME280;57264;47.480;19.354;2023-05-21T04:03:15;99313.75;;;16.24;66.14
44697;BME280;57264;47.480;19.354;2023-05-21T04:05:41;99318.88;;;16.30;66.88
44697;BME280;57264;47.480;19.354;2023-05-21T04:08:07;99321.47;;;16.59;65.20
44697;BME280;57264;47.480;19.354;2023-05-21T04:10:33;99318.19;;;16.68;64.73
44697;BME280;57264;47.480;19.354;2023-05-21T04:12:58;99315.41;;;16.97;63.63
44697;BME280;57264;47.480;19.354;2023-05-21T04:15:24;99323.16;;;17.03;63.10
44697;BME280;57264;47.480;19.354;2023-05-21T04:17:52;99328.03;;;17.55;61.49
44697;BME280;57264;47.480;19.354;2023-05-21T04:20:17;99322.53;;;17.83;59.84
44697;BME280;57264;47.480;19.354;2023-05-21T04:22:43;99330.19;;;18.06;59.84
44697;BME280;57264;47.480;19.354;2023-05-21T04:25:08;99333.22;;;17.88;59.64
44697;BME280;57264;47.480;19.354;2023-05-21T04:27:35;99325.69;;;18.07;59.58
44697;BME280;57264;47.480;19.354;2023-05-21T04:30:01;99327.53;;;18.06;59.29
44697;BME280;57264;47.480;19.354;2023-05-21T04:32:29;99322.22;;;18.33;58.62
44697;BME280;57264;47.480;19.354;2023-05-21T04:34:56;99316.31;;;18.58;57.56
44697;BME280;57264;47.480;19.354;2023-05-21T04:37:22;99306.88;;;18.77;57.00
44697;BME280;57264;47.480;19.354;2023-05-21T04:39:50;99311.97;;;18.84;56.31
44697;BME280;57264;47.480;19.354;2023-05-21T04:42:15;99303.84;;;19.05;55.65
44697;BME280;57264;47.480;19.354;2023-05-21T04:44:41;99306.63;;;19.36;54.73
44697;BME280;57264;47.480;19.354;2023-05-21T04:47:08;99309.44;;;19.86;53.19
44697;BME280;57264;47.480;19.354;2023-05-21T04:49:34;99300.41;;;19.77;53.97
44697;BME280;57264;47.480;19.354;2023-05-21T04:52:00;99296.38;;;19.75;54.29
44697;BME280;57264;47.480;19.354;2023-05-21T04:54:26;99300.97;;;20.04;52.59
44697;BME280;57264;47.480;19.354;2023-05-21T04:56:52;99291.38;;;20.08;52.47
44697;BME280;57264;47.480;19.354;2023-05-21T04:59:18;99288.19;;;20.62;51.08
44697;BME280;57264;47.480;19.354;2023-05-21T05:01:44;99295.09;;;20.73;50.66
44697;BME280;57264;47.480;19.354;2023-05-21T05:04:10;99297.53;;;20.39;51.86
44697;BME280;57264;47.480;19.354;2023-05-21T05:06:35;99311.84;;;20.94;50.67
44697;BME280;57264;47.480;19.354;2023-05-21T05:09:01;99302.97;;;21.19;50.38
44697;BME280;57264;47.480;19.354;2023-05-21T05:11:27;99302.44;;;21.22;49.40
44697;BME280;57264;47.480;19.354;2023-05-21T05:13:52;99317.94;;;21.05;49.64
44697;BME280;57264;47.480;19.354;2023-05-21T05:16:18;99303.72;;;21.83;48.51
44697;BME280;57264;47.480;19.354;2023-05-21T05:18:52;99299.47;;;21.28;50.06
44697;BME280;57264;47.480;19.354;2023-05-21T05:21:20;99298.03;;;21.95;47.78
44697;BME280;57264;47.480;19.354;2023-05-21T05:23:46;99299.94;;;21.95;48.41
44697;BME280;57264;47.480;19.354;2023-05-21T05:26:12;99298.13;;;22.53;46.91
44697;BME280;57264;47.480;19.354;2023-05-21T05:28:37;99296.94;;;22.35;45.99
44697;BME280;57264;47.480;19.354;2023-05-21T05:31:03;99290.06;;;22.58;46.47
44697;BME280;57264;47.480;19.354;2023-05-21T05:33:28;99295.50;;;23.00;45.77
44697;BME280;57264;47.480;19.354;2023-05-21T05:35:54;99289.88;;;23.25;45.06
44697;BME280;57264;47.480;19.354;2023-05-21T05:38:19;99294.47;;;22.44;46.42
44697;BME280;57264;47.480;19.354;2023-05-21T05:40:45;99291.00;;;23.19;45.44
44697;BME280;57264;47.480;19.354;2023-05-21T05:43:11;99294.53;;;23.39;45.43
44697;BME280;57264;47.480;19.354;2023-05-21T05:45:36;99291.25;;;23.65;43.82
44697;BME280;57264;47.480;19.354;2023-05-21T05:48:02;99287.34;;;23.58;44.48
44697;BME280;57264;47.480;19.354;2023-05-21T05:52:53;99291.34;;;24.11;44.34
44697;BME280;57264;47.480;19.354;2023-05-21T05:55:18;99293.50;;;23.58;44.63
44697;BME280;57264;47.480;19.354;2023-05-21T05:57:44;99285.63;;;23.43;44.24
44697;BME280;57264;47.480;19.354;2023-05-21T06:00:10;99290.41;;;24.21;43.32
44697;BME280;57264;47.480;19.354;2023-05-21T06:02:36;99283.06;;;23.94;42.97
44697;BME280;57264;47.480;19.354;2023-05-21T06:05:02;99282.09;;;23.24;45.61
44697;BME280;57264;47.480;19.354;2023-05-21T06:07:28;99281.09;;;24.32;43.74
44697;BME280;57264;47.480;19.354;2023-05-21T06:09:53;99270.75;;;23.74;44.54
44697;BME280;57264;47.480;19.354;2023-05-21T06:12:19;99271.19;;;24.92;41.93
44697;BME280;57264;47.480;19.354;2023-05-21T06:14:44;99275.28;;;24.44;42.66
44697;BME280;57264;47.480;19.354;2023-05-21T06:17:11;99269.03;;;24.48;42.25
44697;BME280;57264;47.480;19.354;2023-05-21T06:19:38;99271.78;;;24.30;43.27
44697;BME280;57264;47.480;19.354;2023-05-21T06:22:04;99265.50;;;24.02;43.49
44697;BME280;57264;47.480;19.354;2023-05-21T06:24:30;99264.91;;;24.97;42.58
44697;BME280;57264;47.480;19.354;2023-05-21T06:26:55;99256.16;;;25.19;41.29
44697;BME280;57264;47.480;19.354;2023-05-21T06:29:21;99261.63;;;25.13;41.82
44697;BME280;57264;47.480;19.354;2023-05-21T06:31:47;99258.44;;;25.25;41.69
44697;BME280;57264;47.480;19.354;2023-05-21T06:34:13;99248.50;;;25.48;41.23
44697;BME280;57264;47.480;19.354;2023-05-21T06:36:39;99260.84;;;24.99;42.17
44697;BME280;57264;47.480;19.354;2023-05-21T06:39:05;99266.13;;;24.91;42.17
44697;BME280;57264;47.480;19.354;2023-05-21T06:41:31;99254.75;;;25.21;41.48
44697;BME280;57264;47.480;19.354;2023-05-21T06:44:13;99254.22;;;25.33;43.23
44697;BME280;57264;47.480;19.354;2023-05-21T06:46:40;99252.56;;;25.09;41.19
44697;BME280;57264;47.480;19.354;2023-05-21T06:49:05;99250.22;;;25.44;40.49
44697;BME280;57264;47.480;19.354;2023-05-21T06:51:31;99260.28;;;23.92;42.96
44697;BME280;57264;47.480;19.354;2023-05-21T06:53:57;99262.81;;;24.66;42.42
44697;BME280;57264;47.480;19.354;2023-05-21T06:56:22;99252.78;;;24.99;42.62
44697;BME280;57264;47.480;19.354;2023-05-21T06:58:48;99251.16;;;25.26;40.66
44697;BME280;57264;47.480;19.354;2023-05-21T07:01:14;99246.22;;;25.19;42.19
44697;BME280;57264;47.480;19.354;2023-05-21T07:03:40;99251.09;;;25.67;40.83
44697;BME280;57264;47.480;19.354;2023-05-21T07:06:06;99253.47;;;25.68;40.38
44697;BME280;57264;47.480;19.354;2023-05-21T07:08:32;99253.28;;;25.15;41.87
44697;BME280;57264;47.480;19.354;2023-05-21T07:10:57;99250.16;;;24.81;42.45
44697;BME280;57264;47.480;19.354;2023-05-21T07:13:23;99248.28;;;25.08;43.69
44697;BME280;57264;47.480;19.354;2023-05-21T07:15:49;99255.53;;;24.53;43.85
44697;BME280;57264;47.480;19.354;2023-05-21T07:18:15;99254.91;;;23.92;45.26
44697;BME280;57264;47.480;19.354;2023-05-21T07:20:41;99253.06;;;23.73;46.00
44697;BME280;57264;47.480;19.354;2023-05-21T07:23:06;99242.28;;;23.78;46.03
44697;BME280;57264;47.480;19.354;2023-05-21T07:25:32;99255.41;;;24.31;46.35
44697;BME280;57264;47.480;19.354;2023-05-21T07:27:58;99244.81;;;23.70;47.61
44697;BME280;57264;47.480;19.354;2023-05-21T07:30:23;99245.06;;;24.06;46.21
44697;BME280;57264;47.480;19.354;2023-05-21T07:32:49;99239.38;;;23.75;46.94
44697;BME280;57264;47.480;19.354;2023-05-21T07:35:15;99249.53;;;23.78;46.42
44697;BME280;57264;47.480;19.354;2023-05-21T07:37:40;99243.38;;;23.59;47.67
44697;BME280;57264;47.480;19.354;2023-05-21T07:40:06;99247.81;;;23.26;49.51
44697;BME280;57264;47.480;19.354;2023-05-21T07:42:32;99256.91;;;23.49;48.17
44697;BME280;57264;47.480;19.354;2023-05-21T07:44:58;99249.50;;;22.74;50.49
44697;BME280;57264;47.480;19.354;2023-05-21T07:47:23;99246.66;;;22.90;50.72
44697;BME280;57264;47.480;19.354;2023-05-21T07:49:49;99242.00;;;23.61;49.02
44697;BME280;57264;47.480;19.354;2023-05-21T07:52:15;99249.75;;;23.39;47.85
44697;BME280;57264;47.480;19.354;2023-05-21T07:54:40;99247.38;;;23.38;50.67
44697;BME280;57264;47.480;19.354;2023-05-21T07:57:06;99241.41;;;23.46;46.53
44697;BME280;57264;47.480;19.354;2023-05-21T07:59:31;99241.06;;;23.10;48.09
44697;BME280;57264;47.480;19.354;2023-05-21T08:01:58;99241.63;;;23.49;48.84
44697;BME280;57264;47.480;19.354;2023-05-21T08:04:23;99244.66;;;23.61;48.15
44697;BME280;57264;47.480;19.354;2023-05-21T08:06:49;99237.84;;;23.69;48.19
44697;BME280;57264;47.480;19.354;2023-05-21T08:09:15;99246.53;;;23.42;47.79
44697;BME280;57264;47.480;19.354;2023-05-21T08:11:41;99255.00;;;23.30;47.92
44697;BME280;57264;47.480;19.354;2023-05-21T08:14:06;99249.13;;;23.28;48.25
44697;BME280;57264;47.480;19.354;2023-05-21T08:16:32;99255.00;;;22.83;49.73
44697;BME280;57264;47.480;19.354;2023-05-21T08:19:00;99247.38;;;23.19;49.66
44697;BME280;57264;47.480;19.354;2023-05-21T08:21:26;99242.53;;;23.21;50.05
44697;BME280;57264;47.480;19.354;2023-05-21T08:23:52;99243.22;;;23.50;49.68
44697;BME280;57264;47.480;19.354;2023-05-21T08:26:18;99248.94;;;23.44;47.47
44697;BME280;57264;47.480;19.354;2023-05-21T08:28:43;99248.13;;;23.43;48.39
44697;BME280;57264;47.480;19.354;2023-05-21T08:31:09;99245.41;;;23.67;47.21
44697;BME280;57264;47.480;19.354;2023-05-21T08:33:35;99244.91;;;23.46;47.57
44697;BME280;57264;47.480;19.354;2023-05-21T08:36:05;99244.75;;;23.56;47.70
44697;BME280;57264;47.480;19.354;2023-05-21T08:38:31;99243.97;;;23.32;47.08
44697;BME280;57264;47.480;19.354;2023-05-21T08:40:57;99252.06;;;23.51;47.78
44697;BME280;57264;47.480;19.354;2023-05-21T08:43:26;99252.34;;;23.49;48.60
44697;BME280;57264;47.480;19.354;2023-05-21T08:45:53;99238.31;;;23.57;48.65
44697;BME280;57264;47.480;19.354;2023-05-21T08:48:22;99249.16;;;23.66;47.93
44697;BME280;57264;47.480;19.354;2023-05-21T08:50:50;99253.53;;;23.38;45.76
44697;BME280;57264;47.480;19.354;2023-05-21T08:53:16;99246.66;;;23.32;46.66
44697;BME280;57264;47.480;19.354;2023-05-21T08:55:42;99241.25;;;23.56;46.92
44697;BME280;57264;47.480;19.354;2023-05-21T08:58:09;99240.56;;;23.50;47.23
44697;BME280;57264;47.480;19.354;2023-05-21T09:00:35;99242.78;;;23.43;44.45
44697;BME280;57264;47.480;19.354;2023-05-21T09:03:03;99250.59;;;23.16;45.09
44697;BME280;57264;47.480;19.354;2023-05-21T09:05:40;99245.78;;;23.37;46.00
44697;BME280;57264;47.480;19.354;2023-05-21T09:08:17;99245.59;;;23.52;45.42
44697;BME280;57264;47.480;19.354;2023-05-21T09:10:48;99232.78;;;23.49;46.58
44697;BME280;57264;47.480;19.354;2023-05-21T09:13:17;99235.69;;;23.71;50.09
44697;BME280;57264;47.480;19.354;2023-05-21T09:15:44;99247.81;;;23.26;47.33
44697;BME280;57264;47.480;19.354;2023-05-21T09:18:11;99233.66;;;23.44;47.64
44697;BME280;57264;47.480;19.354;2023-05-21T09:20:37;99234.66;;;23.48;45.62
44697;BME280;57264;47.480;19.354;2023-05-21T09:23:04;99239.53;;;23.65;46.17
44697;BME280;57264;47.480;19.354;2023-05-21T09:25:31;99252.47;;;23.76;46.07
44697;BME280;57264;47.480;19.354;2023-05-21T09:27:57;99237.22;;;23.58;46.32
44697;BME280;57264;47.480;19.354;2023-05-21T09:30:23;99242.06;;;23.75;46.32
44697;BME280;57264;47.480;19.354;2023-05-21T09:32:57;99240.91;;;23.62;45.77
44697;BME280;57264;47.480;19.354;2023-05-21T09:35:24;99233.28;;;23.69;46.73
44697;BME280;57264;47.480;19.354;2023-05-21T09:37:50;99237.88;;;23.50;45.66
44697;BME280;57264;47.480;19.354;2023-05-21T09:40:17;99233.75;;;23.58;48.48
44697;BME280;57264;47.480;19.354;2023-05-21T09:42:53;99228.50;;;23.48;46.73
44697;BME280;57264;47.480;19.354;2023-05-21T09:45:26;99234.97;;;23.47;46.30
44697;BME280;57264;47.480;19.354;2023-05-21T09:47:54;99231.94;;;23.53;45.43
44697;BME280;57264;47.480;19.354;2023-05-21T09:50:25;99241.53;;;23.73;45.38
44697;BME280;57264;47.480;19.354;2023-05-21T09:52:53;99235.38;;;23.72;45.87
44697;BME280;57264;47.480;19.354;2023-05-21T09:57:48;99213.59;;;23.60;44.05
44697;BME280;57264;47.480;19.354;2023-05-21T10:00:21;99219.31;;;23.72;46.92
44697;BME280;57264;47.480;19.354;2023-05-21T10:02:49;99215.47;;;23.78;46.97
44697;BME280;57264;47.480;19.354;2023-05-21T10:05:19;99225.66;;;23.76;44.37
44697;BME280;57264;47.480;19.354;2023-05-21T10:07:51;99212.06;;;23.73;44.24
44697;BME280;57264;47.480;19.354;2023-05-21T10:10:19;99211.19;;;23.77;44.88
44697;BME280;57264;47.480;19.354;2023-05-21T10:15:51;99214.38;;;23.61;45.26
44697;BME280;57264;47.480;19.354;2023-05-21T10:18:21;99210.78;;;23.70;45.61
44697;BME280;57264;47.480;19.354;2023-05-21T10:20:48;99204.09;;;24.00;47.36
44697;BME280;57264;47.480;19.354;2023-05-21T10:23:14;99200.47;;;23.77;46.08
44697;BME280;57264;47.480;19.354;2023-05-21T10:25:40;99212.63;;;23.89;46.16
44697;BME280;57264;47.480;19.354;2023-05-21T10:28:06;99217.22;;;24.02;46.06
44697;BME280;57264;47.480;19.354;2023-05-21T10:30:32;99201.69;;;23.85;45.57
44697;BME280;57264;47.480;19.354;2023-05-21T10:32:58;99208.16;;;24.16;46.06
44697;BME280;57264;47.480;19.354;2023-05-21T10:35:26;99205.22;;;24.13;46.66
44697;BME280;57264;47.480;19.354;2023-05-21T10:37:51;99194.09;;;24.06;46.11
44697;BME280;57264;47.480;19.354;2023-05-21T10:40:18;99203.59;;;24.17;45.71
44697;BME280;57264;47.480;19.354;2023-05-21T10:46:15;99195.56;;;24.71;44.34
44697;BME280;57264;47.480;19.354;2023-05-21T10:56:58;99206.81;;;24.46;43.08
44697;BME280;57264;47.480;19.354;2023-05-21T10:59:41;99203.03;;;24.61;43.82
44697;BME280;57264;47.480;19.354;2023-05-21T11:02:08;99187.94;;;24.79;42.32
44697;BME280;57264;47.480;19.354;2023-05-21T11:04:35;99193.50;;;24.68;41.65
44697;BME280;57264;47.480;19.354;2023-05-21T11:07:06;99193.50;;;24.41;41.58
44697;BME280;57264;47.480;19.354;2023-05-21T11:09:31;99185.13;;;24.29;41.63
44697;BME280;57264;47.480;19.354;2023-05-21T11:11:58;99189.41;;;24.57;43.50
44697;BME280;57264;47.480;19.354;2023-05-21T11:14:26;99185.94;;;24.70;42.75
44697;BME280;57264;47.480;19.354;2023-05-21T11:16:52;99182.97;;;24.99;44.02
44697;BME280;57264;47.480;19.354;2023-05-21T11:19:17;99180.25;;;25.13;42.20
44697;BME280;57264;47.480;19.354;2023-05-21T11:21:49;99181.38;;;24.98;41.46
44697;BME280;57264;47.480;19.354;2023-05-21T11:24:19;99185.44;;;25.09;42.02
44697;BME280;57264;47.480;19.354;2023-05-21T11:26:58;99183.97;;;25.03;44.17
44697;BME280;57264;47.480;19.354;2023-05-21T11:29:53;99191.41;;;24.93;42.04
44697;BME280;57264;47.480;19.354;2023-05-21T11:32:20;99189.25;;;24.95;42.99
44697;BME280;57264;47.480;19.354;2023-05-21T11:34:48;99182.94;;;25.13;42.11
44697;BME280;57264;47.480;19.354;2023-05-21T11:39:43;99177.16;;;25.20;42.42
44697;BME280;57264;47.480;19.354;2023-05-21T11:42:09;99185.50;;;25.18;42.38
44697;BME280;57264;47.480;19.354;2023-05-21T11:44:47;99178.38;;;25.36;41.06
44697;BME280;57264;47.480;19.354;2023-05-21T11:47:14;99177.06;;;25.11;42.12
44697;BME280;57264;47.480;19.354;2023-05-21T11:49:41;99172.16;;;25.27;41.00
44697;BME280;57264;47.480;19.354;2023-05-21T11:52:08;99181.13;;;25.22;42.65
44697;BME280;57264;47.480;19.354;2023-05-21T11:54:43;99181.81;;;25.50;44.89
44697;BME280;57264;47.480;19.354;2023-05-21T11:57:15;99174.56;;;25.14;39.93
44697;BME280;57264;47.480;19.354;2023-05-21T11:59:46;99167.19;;;25.20;41.73
44697;BME280;57264;47.480;19.354;2023-05-21T12:02:17;99166.53;;;25.01;41.39
44697;BME280;57264;47.480;19.354;2023-05-21T12:04:45;99167.25;;;24.65;42.55
44697;BME280;57264;47.480;19.354;2023-05-21T12:07:13;99158.19;;;24.89;42.13
44697;BME280;57264;47.480;19.354;2023-05-21T12:09:39;99162.75;;;25.02;41.84
44697;BME280;57264;47.480;19.354;2023-05-21T12:12:07;99159.09;;;24.98;40.21
44697;BME280;57264;47.480;19.354;2023-05-21T12:14:34;99153.28;;;25.04;40.78
44697;BME280;57264;47.480;19.354;2023-05-21T12:17:01;99150.47;;;25.23;40.65
44697;BME280;57264;47.480;19.354;2023-05-21T12:19:27;99150.00;;;25.43;41.98
44697;BME280;57264;47.480;19.354;2023-05-21T12:21:53;99149.06;;;25.26;40.88
44697;BME280;57264;47.480;19.354;2023-05-21T12:24:18;99147.34;;;25.07;41.17
44697;BME280;57264;47.480;19.354;2023-05-21T12:26:44;99145.09;;;25.23;40.44
44697;BME280;57264;47.480;19.354;2023-05-21T12:29:10;99148.63;;;25.32;41.11
44697;BME280;57264;47.480;19.354;2023-05-21T12:31:49;99137.69;;;25.06;39.46
44697;BME280;57264;47.480;19.354;2023-05-21T12:34:15;99145.31;;;25.13;37.99
44697;BME280;57264;47.480;19.354;2023-05-21T12:36:43;99138.28;;;25.39;40.20
44697;BME280;57264;47.480;19.354;2023-05-21T12:39:16;99138.75;;;25.41;39.79
44697;BME280;57264;47.480;19.354;2023-05-21T12:41:42;99138.53;;;25.51;41.17
44697;BME280;57264;47.480;19.354;2023-05-21T12:44:09;99136.63;;;25.30;39.81
44697;BME280;57264;47.480;19.354;2023-05-21T12:46:35;99145.22;;;25.18;39.93
44697;BME280;57264;47.480;19.354;2023-05-21T12:49:01;99136.53;;;25.21;41.95
44697;BME280;57264;47.480;19.354;2023-05-21T12:51:36;99133.38;;;25.41;38.85
44697;BME280;57264;47.480;19.354;2023-05-21T12:54:03;99132.28;;;25.42;36.90
44697;BME280;57264;47.480;19.354;2023-05-21T12:56:43;99131.47;;;25.55;39.90
44697;BME280;57264;47.480;19.354;2023-05-21T12:59:13;99127.06;;;25.59;40.39
44697;BME280;57264;47.480;19.354;2023-05-21T13:01:39;99124.97;;;25.34;38.60
44697;BME280;57264;47.480;19.354;2023-05-21T13:04:05;99115.00;;;25.35;38.36
44697;BME280;57264;47.480;19.354;2023-05-21T13:06:41;99115.84;;;25.44;37.10
44697;BME280;57264;47.480;19.354;2023-05-21T13:09:07;99118.22;;;25.45;39.07
44697;BME280;57264;47.480;19.354;2023-05-21T13:11:33;99116.63;;;25.44;36.82
44697;BME280;57264;47.480;19.354;2023-05-21T13:13:58;99117.06;;;25.38;37.13
44697;BME280;57264;47.480;19.354;2023-05-21T13:16:24;99113.03;;;25.49;37.63
44697;BME280;57264;47.480;19.354;2023-05-21T13:18:50;99102.50;;;25.52;37.91
44697;BME280;57264;47.480;19.354;2023-05-21T13:21:15;99108.59;;;25.67;40.65
44697;BME280;57264;47.480;19.354;2023-05-21T13:23:41;99099.72;;;25.44;39.73
44697;BME280;57264;47.480;19.354;2023-05-21T13:26:06;99086.25;;;25.35;40.00
44697;BME280;57264;47.480;19.354;2023-05-21T13:28:32;99091.84;;;25.47;39.46